sensor_id;sensor_type;location;lat;lon;timestamp;P1;durP1;ratioP1;P2;durP2;ratioP2
27740;SDS011;15134;48.768;9.184;2022-11-20T00:01:26;10.88;;;6.95;;
27740;SDS011;15134;48.768;9.184;2022-11-20T00:03:53;11.90;;;7.07;;
27740;SDS011;15134;48.768;9.184;2022-11-20T00:06:21;11.68;;;6.80;;
27740;SDS011;15134;48.768;9.184;2022-11-20T00:08:53;11.82;;;6.85;;
27740;SDS011;15134;48.768;9.184;2022-11-20T00:11:22;9.82;;;5.50;;
27740;SDS011;15134;48.768;9.184;2022-11-20T00:13:50;8.10;;;4.70;;
27740;SDS011;15134;48.768;9.184;2022-11-20T00:16:22;6.60;;;4.53;;
27740;SDS011;15134;48.768;9.184;2022-11-20T00:18:50;8.90;;;5.05;;
27740;SDS011;15134;48.768;9.184;2022-11-20T00:21:18;8.27;;;5.00;;
27740;SDS011;15134;48.768;9.184;2022-11-20T00:23:49;9.15;;;4.13;;
27740;SDS011;15134;48.768;9.184;2022-11-20T00:26:17;8.73;;;4.20;;
27740;SDS011;15134;48.768;9.184;2022-11-20T00:28:48;8.15;;;4.05;;
27740;SDS011;15134;48.768;9.184;2022-11-20T00:31:22;9.32;;;4.00;;
27740;SDS011;15134;48.768;9.184;2022-11-20T00:33:48;9.23;;;4.13;;
27740;SDS011;15134;48.768;9.184;2022-11-20T00:36:17;7.53;;;3.90;;
27740;SDS011;15134;48.768;9.184;2022-11-20T00:38:50;6.20;;;3.65;;
27740;SDS011;15134;48.768;9.184;2022-11-20T00:41:17;6.22;;;3.67;;
27740;SDS011;15134;48.768;9.184;2022-11-20T00:43:43;5.37;;;3.40;;
27740;SDS011;15134;48.768;9.184;2022-11-20T00:46:12;6.68;;;3.72;;
27740;SDS011;15134;48.768;9.184;2022-11-20T00:48:40;6.72;;;3.65;;
27740;SDS011;15134;48.768;9.184;2022-11-20T00:51:06;6.85;;;3.60;;
27740;SDS011;15134;48.768;9.184;2022-11-20T00:53:33;6.32;;;3.50;;
27740;SDS011;15134;48.768;9.184;2022-11-20T00:56:00;6.30;;;3.45;;
27740;SDS011;15134;48.768;9.184;2022-11-20T00:58:34;7.05;;;3.42;;
27740;SDS011;15134;48.768;9.184;2022-11-20T01:01:02;7.45;;;3.42;;
27740;SDS011;15134;48.768;9.184;2022-11-20T01:03:40;7.10;;;3.28;;
27740;SDS011;15134;48.768;9.184;2022-11-20T01:06:11;8.85;;;3.35;;
27740;SDS011;15134;48.768;9.184;2022-11-20T01:08:49;7.30;;;3.28;;
27740;SDS011;15134;48.768;9.184;2022-11-20T01:11:17;5.55;;;3.10;;
27740;SDS011;15134;48.768;9.184;2022-11-20T01:13:46;7.03;;;2.70;;
27740;SDS011;15134;48.768;9.184;2022-11-20T01:16:14;6.80;;;3.30;;
27740;SDS011;15134;48.768;9.184;2022-11-20T01:18:43;5.90;;;2.90;;
27740;SDS011;15134;48.768;9.184;2022-11-20T01:21:12;4.82;;;2.72;;
27740;SDS011;15134;48.768;9.184;2022-11-20T01:23:41;6.95;;;3.10;;
27740;SDS011;15134;48.768;9.184;2022-11-20T01:26:09;5.93;;;3.25;;
27740;SDS011;15134;48.768;9.184;2022-11-20T01:28:39;4.95;;;2.63;;
27740;SDS011;15134;48.768;9.184;2022-11-20T01:31:13;4.80;;;2.70;;
27740;SDS011;15134;48.768;9.184;2022-11-20T01:33:40;5.90;;;3.10;;
27740;SDS011;15134;48.768;9.184;2022-11-20T01:36:10;6.07;;;3.00;;
27740;SDS011;15134;48.768;9.184;2022-11-20T01:41:06;8.60;;;2.73;;
27740;SDS011;15134;48.768;9.184;2022-11-20T01:43:32;5.10;;;2.50;;
27740;SDS011;15134;48.768;9.184;2022-11-20T01:48:50;4.78;;;2.65;;
27740;SDS011;15134;48.768;9.184;2022-11-20T01:54:11;5.47;;;3.22;;
27740;SDS011;15134;48.768;9.184;2022-11-20T01:56:42;5.90;;;3.00;;
27740;SDS011;15134;48.768;9.184;2022-11-20T01:59:13;6.13;;;3.30;;
27740;SDS011;15134;48.768;9.184;2022-11-20T02:01:44;6.72;;;3.38;;
27740;SDS011;15134;48.768;9.184;2022-11-20T02:04:10;6.03;;;3.10;;
27740;SDS011;15134;48.768;9.184;2022-11-20T02:09:07;8.27;;;3.35;;
27740;SDS011;15134;48.768;9.184;2022-11-20T02:11:33;6.37;;;3.00;;
27740;SDS011;15134;48.768;9.184;2022-11-20T02:13:59;5.60;;;3.33;;
27740;SDS011;15134;48.768;9.184;2022-11-20T02:16:26;6.77;;;3.03;;
27740;SDS011;15134;48.768;9.184;2022-11-20T02:18:59;4.20;;;2.50;;
27740;SDS011;15134;48.768;9.184;2022-11-20T02:24:08;6.45;;;2.88;;
27740;SDS011;15134;48.768;9.184;2022-11-20T02:26:41;7.03;;;3.28;;
27740;SDS011;15134;48.768;9.184;2022-11-20T02:29:08;6.05;;;2.88;;
27740;SDS011;15134;48.768;9.184;2022-11-20T02:31:37;4.93;;;3.07;;
27740;SDS011;15134;48.768;9.184;2022-11-20T02:34:05;6.07;;;3.10;;
27740;SDS011;15134;48.768;9.184;2022-11-20T02:36:33;6.13;;;3.30;;
27740;SDS011;15134;48.768;9.184;2022-11-20T02:39:00;8.52;;;3.55;;
27740;SDS011;15134;48.768;9.184;2022-11-20T02:41:32;6.55;;;3.28;;
27740;SDS011;15134;48.768;9.184;2022-11-20T02:43:59;7.35;;;3.60;;
27740;SDS011;15134;48.768;9.184;2022-11-20T02:46:26;6.35;;;3.42;;
27740;SDS011;15134;48.768;9.184;2022-11-20T02:48:57;6.78;;;3.38;;
27740;SDS011;15134;48.768;9.184;2022-11-20T02:51:23;5.30;;;3.07;;
27740;SDS011;15134;48.768;9.184;2022-11-20T02:53:49;6.83;;;3.07;;
27740;SDS011;15134;48.768;9.184;2022-11-20T02:56:15;9.37;;;3.03;;
27740;SDS011;15134;48.768;9.184;2022-11-20T02:58:41;9.20;;;3.60;;
27740;SDS011;15134;48.768;9.184;2022-11-20T03:01:07;5.67;;;3.10;;
27740;SDS011;15134;48.768;9.184;2022-11-20T03:03:32;8.03;;;3.40;;
27740;SDS011;15134;48.768;9.184;2022-11-20T03:05:58;7.53;;;3.63;;
27740;SDS011;15134;48.768;9.184;2022-11-20T03:08:24;5.45;;;3.17;;
27740;SDS011;15134;48.768;9.184;2022-11-20T03:10:51;6.97;;;3.47;;
27740;SDS011;15134;48.768;9.184;2022-11-20T03:13:17;9.70;;;3.60;;
27740;SDS011;15134;48.768;9.184;2022-11-20T03:15:45;6.70;;;3.30;;
27740;SDS011;15134;48.768;9.184;2022-11-20T03:18:10;5.90;;;3.78;;
27740;SDS011;15134;48.768;9.184;2022-11-20T03:20:38;7.47;;;3.65;;
27740;SDS011;15134;48.768;9.184;2022-11-20T03:23:04;7.83;;;3.73;;
27740;SDS011;15134;48.768;9.184;2022-11-20T03:25:30;7.00;;;3.72;;
27740;SDS011;15134;48.768;9.184;2022-11-20T03:27:56;7.13;;;4.10;;
27740;SDS011;15134;48.768;9.184;2022-11-20T03:30:22;8.67;;;3.97;;
27740;SDS011;15134;48.768;9.184;2022-11-20T03:32:47;5.43;;;3.50;;
27740;SDS011;15134;48.768;9.184;2022-11-20T03:35:13;7.33;;;4.00;;
27740;SDS011;15134;48.768;9.184;2022-11-20T03:37:39;6.83;;;3.93;;
27740;SDS011;15134;48.768;9.184;2022-11-20T03:40:05;7.63;;;3.67;;
27740;SDS011;15134;48.768;9.184;2022-11-20T03:42:31;7.13;;;3.70;;
27740;SDS011;15134;48.768;9.184;2022-11-20T03:45:17;9.35;;;4.07;;
27740;SDS011;15134;48.768;9.184;2022-11-20T03:47:46;7.07;;;3.65;;
27740;SDS011;15134;48.768;9.184;2022-11-20T03:50:12;6.07;;;3.83;;
27740;SDS011;15134;48.768;9.184;2022-11-20T03:55:05;6.95;;;3.92;;
27740;SDS011;15134;48.768;9.184;2022-11-20T03:57:32;6.30;;;3.85;;
27740;SDS011;15134;48.768;9.184;2022-11-20T03:59:58;7.40;;;3.60;;
27740;SDS011;15134;48.768;9.184;2022-11-20T04:02:24;6.47;;;3.70;;
27740;SDS011;15134;48.768;9.184;2022-11-20T04:04:50;6.87;;;3.87;;
27740;SDS011;15134;48.768;9.184;2022-11-20T04:07:15;5.77;;;3.27;;
27740;SDS011;15134;48.768;9.184;2022-11-20T04:09:41;6.10;;;3.60;;
27740;SDS011;15134;48.768;9.184;2022-11-20T04:12:07;5.50;;;3.40;;
27740;SDS011;15134;48.768;9.184;2022-11-20T04:14:32;8.10;;;3.40;;
27740;SDS011;15134;48.768;9.184;2022-11-20T04:16:58;6.13;;;3.03;;
27740;SDS011;15134;48.768;9.184;2022-11-20T04:19:24;6.60;;;3.37;;
27740;SDS011;15134;48.768;9.184;2022-11-20T04:21:49;7.63;;;3.60;;
27740;SDS011;15134;48.768;9.184;2022-11-20T04:24:15;6.17;;;3.37;;
27740;SDS011;15134;48.768;9.184;2022-11-20T04:26:40;6.70;;;3.47;;
27740;SDS011;15134;48.768;9.184;2022-11-20T04:29:06;6.03;;;3.60;;
27740;SDS011;15134;48.768;9.184;2022-11-20T04:31:34;6.80;;;3.53;;
27740;SDS011;15134;48.768;9.184;2022-11-20T04:34:03;7.22;;;3.30;;
27740;SDS011;15134;48.768;9.184;2022-11-20T04:36:30;6.65;;;3.97;;
27740;SDS011;15134;48.768;9.184;2022-11-20T04:38:57;5.95;;;3.33;;
27740;SDS011;15134;48.768;9.184;2022-11-20T04:41:29;5.45;;;3.13;;
27740;SDS011;15134;48.768;9.184;2022-11-20T04:43:58;5.32;;;3.17;;
27740;SDS011;15134;48.768;9.184;2022-11-20T04:46:28;6.50;;;3.70;;
27740;SDS011;15134;48.768;9.184;2022-11-20T04:48:59;7.55;;;4.15;;
27740;SDS011;15134;48.768;9.184;2022-11-20T04:51:25;7.27;;;3.73;;
27740;SDS011;15134;48.768;9.184;2022-11-20T04:53:51;6.82;;;3.70;;
27740;SDS011;15134;48.768;9.184;2022-11-20T04:56:17;7.17;;;3.77;;
27740;SDS011;15134;48.768;9.184;2022-11-20T04:58:43;6.30;;;3.70;;
27740;SDS011;15134;48.768;9.184;2022-11-20T05:01:10;5.53;;;3.47;;
27740;SDS011;15134;48.768;9.184;2022-11-20T05:03:39;6.30;;;3.88;;
27740;SDS011;15134;48.768;9.184;2022-11-20T05:06:05;7.70;;;3.65;;
27740;SDS011;15134;48.768;9.184;2022-11-20T05:08:32;6.35;;;3.55;;
27740;SDS011;15134;48.768;9.184;2022-11-20T05:11:02;7.13;;;3.92;;
27740;SDS011;15134;48.768;9.184;2022-11-20T05:13:29;6.65;;;3.85;;
27740;SDS011;15134;48.768;9.184;2022-11-20T05:16:02;5.83;;;3.40;;
27740;SDS011;15134;48.768;9.184;2022-11-20T05:18:47;7.22;;;3.60;;
27740;SDS011;15134;48.768;9.184;2022-11-20T05:21:17;7.18;;;3.95;;
27740;SDS011;15134;48.768;9.184;2022-11-20T05:23:45;6.20;;;3.78;;
27740;SDS011;15134;48.768;9.184;2022-11-20T05:26:13;7.63;;;4.22;;
27740;SDS011;15134;48.768;9.184;2022-11-20T05:28:40;6.88;;;3.90;;
27740;SDS011;15134;48.768;9.184;2022-11-20T05:31:07;6.43;;;3.60;;
27740;SDS011;15134;48.768;9.184;2022-11-20T05:33:42;6.82;;;3.60;;
27740;SDS011;15134;48.768;9.184;2022-11-20T05:36:09;6.97;;;3.80;;
27740;SDS011;15134;48.768;9.184;2022-11-20T05:38:36;7.35;;;4.35;;
27740;SDS011;15134;48.768;9.184;2022-11-20T05:41:06;8.13;;;3.80;;
27740;SDS011;15134;48.768;9.184;2022-11-20T05:43:39;7.10;;;3.90;;
27740;SDS011;15134;48.768;9.184;2022-11-20T05:46:06;5.90;;;3.88;;
27740;SDS011;15134;48.768;9.184;2022-11-20T05:48:37;7.38;;;3.50;;
27740;SDS011;15134;48.768;9.184;2022-11-20T05:51:04;5.45;;;3.17;;
27740;SDS011;15134;48.768;9.184;2022-11-20T05:53:32;6.60;;;3.10;;
27740;SDS011;15134;48.768;9.184;2022-11-20T05:56:02;7.68;;;3.55;;
27740;SDS011;15134;48.768;9.184;2022-11-20T05:58:33;7.68;;;3.60;;
27740;SDS011;15134;48.768;9.184;2022-11-20T06:01:03;7.50;;;3.80;;
27740;SDS011;15134;48.768;9.184;2022-11-20T06:03:48;5.50;;;3.28;;
27740;SDS011;15134;48.768;9.184;2022-11-20T06:06:15;8.18;;;3.33;;
27740;SDS011;15134;48.768;9.184;2022-11-20T06:11:09;4.53;;;2.95;;
27740;SDS011;15134;48.768;9.184;2022-11-20T06:13:36;7.93;;;3.65;;
27740;SDS011;15134;48.768;9.184;2022-11-20T06:16:05;5.93;;;3.43;;
27740;SDS011;15134;48.768;9.184;2022-11-20T06:18:31;4.95;;;3.15;;
27740;SDS011;15134;48.768;9.184;2022-11-20T06:21:03;7.77;;;3.50;;
27740;SDS011;15134;48.768;9.184;2022-11-20T06:23:31;5.95;;;3.30;;
27740;SDS011;15134;48.768;9.184;2022-11-20T06:26:08;6.00;;;3.35;;
27740;SDS011;15134;48.768;9.184;2022-11-20T06:28:35;10.90;;;4.05;;
27740;SDS011;15134;48.768;9.184;2022-11-20T06:31:01;7.47;;;3.72;;
27740;SDS011;15134;48.768;9.184;2022-11-20T06:33:27;7.87;;;4.13;;
27740;SDS011;15134;48.768;9.184;2022-11-20T06:35:57;9.13;;;3.55;;
27740;SDS011;15134;48.768;9.184;2022-11-20T06:38:24;8.18;;;3.65;;
27740;SDS011;15134;48.768;9.184;2022-11-20T06:40:53;5.30;;;2.92;;
27740;SDS011;15134;48.768;9.184;2022-11-20T06:43:21;5.60;;;2.90;;
27740;SDS011;15134;48.768;9.184;2022-11-20T06:45:51;7.90;;;3.70;;
27740;SDS011;15134;48.768;9.184;2022-11-20T06:48:18;5.00;;;2.58;;
27740;SDS011;15134;48.768;9.184;2022-11-20T06:50:43;5.10;;;3.23;;
27740;SDS011;15134;48.768;9.184;2022-11-20T06:53:09;4.87;;;2.53;;
27740;SDS011;15134;48.768;9.184;2022-11-20T06:55:34;4.80;;;3.03;;
27740;SDS011;15134;48.768;9.184;2022-11-20T06:58:00;6.20;;;3.30;;
27740;SDS011;15134;48.768;9.184;2022-11-20T07:00:26;6.27;;;2.90;;
27740;SDS011;15134;48.768;9.184;2022-11-20T07:02:53;4.77;;;2.67;;
27740;SDS011;15134;48.768;9.184;2022-11-20T07:05:18;6.43;;;3.05;;
27740;SDS011;15134;48.768;9.184;2022-11-20T07:07:44;8.70;;;4.27;;
27740;SDS011;15134;48.768;9.184;2022-11-20T07:10:10;6.23;;;3.30;;
27740;SDS011;15134;48.768;9.184;2022-11-20T07:12:36;6.03;;;2.87;;
27740;SDS011;15134;48.768;9.184;2022-11-20T07:15:02;8.07;;;2.97;;
27740;SDS011;15134;48.768;9.184;2022-11-20T07:17:28;4.60;;;2.75;;
27740;SDS011;15134;48.768;9.184;2022-11-20T07:19:53;6.27;;;2.50;;
27740;SDS011;15134;48.768;9.184;2022-11-20T07:22:19;6.20;;;2.77;;
27740;SDS011;15134;48.768;9.184;2022-11-20T07:24:46;7.68;;;2.72;;
27740;SDS011;15134;48.768;9.184;2022-11-20T07:27:13;7.38;;;4.28;;
27740;SDS011;15134;48.768;9.184;2022-11-20T07:29:42;5.43;;;2.93;;
27740;SDS011;15134;48.768;9.184;2022-11-20T07:32:07;5.00;;;2.55;;
27740;SDS011;15134;48.768;9.184;2022-11-20T07:34:33;5.27;;;2.37;;
27740;SDS011;15134;48.768;9.184;2022-11-20T07:37:04;4.90;;;2.42;;
27740;SDS011;15134;48.768;9.184;2022-11-20T07:39:30;4.90;;;2.70;;
27740;SDS011;15134;48.768;9.184;2022-11-20T07:41:57;5.00;;;2.70;;
27740;SDS011;15134;48.768;9.184;2022-11-20T07:44:23;4.10;;;2.50;;
27740;SDS011;15134;48.768;9.184;2022-11-20T07:46:48;6.67;;;2.63;;
27740;SDS011;15134;48.768;9.184;2022-11-20T07:49:17;5.87;;;2.53;;
27740;SDS011;15134;48.768;9.184;2022-11-20T07:51:43;4.97;;;1.88;;
27740;SDS011;15134;48.768;9.184;2022-11-20T07:54:09;4.47;;;2.20;;
27740;SDS011;15134;48.768;9.184;2022-11-20T07:56:37;5.73;;;2.33;;
27740;SDS011;15134;48.768;9.184;2022-11-20T07:59:03;4.18;;;2.22;;
27740;SDS011;15134;48.768;9.184;2022-11-20T08:01:28;5.90;;;2.20;;
27740;SDS011;15134;48.768;9.184;2022-11-20T08:03:57;6.45;;;2.58;;
27740;SDS011;15134;48.768;9.184;2022-11-20T08:06:23;5.35;;;2.80;;
27740;SDS011;15134;48.768;9.184;2022-11-20T08:08:51;4.00;;;2.05;;
27740;SDS011;15134;48.768;9.184;2022-11-20T08:11:17;3.65;;;1.58;;
27740;SDS011;15134;48.768;9.184;2022-11-20T08:14:01;5.63;;;2.33;;
27740;SDS011;15134;48.768;9.184;2022-11-20T08:16:41;6.88;;;3.92;;
27740;SDS011;15134;48.768;9.184;2022-11-20T08:19:11;6.05;;;2.35;;
27740;SDS011;15134;48.768;9.184;2022-11-20T08:21:41;4.93;;;2.60;;
27740;SDS011;15134;48.768;9.184;2022-11-20T08:24:08;4.57;;;2.28;;
27740;SDS011;15134;48.768;9.184;2022-11-20T08:26:36;5.00;;;2.10;;
27740;SDS011;15134;48.768;9.184;2022-11-20T08:29:05;4.30;;;2.20;;
27740;SDS011;15134;48.768;9.184;2022-11-20T08:31:32;5.88;;;2.53;;
27740;SDS011;15134;48.768;9.184;2022-11-20T08:33:58;4.47;;;2.30;;
27740;SDS011;15134;48.768;9.184;2022-11-20T08:36:24;6.00;;;2.50;;
27740;SDS011;15134;48.768;9.184;2022-11-20T08:38:50;6.73;;;2.33;;
27740;SDS011;15134;48.768;9.184;2022-11-20T08:41:17;3.78;;;1.92;;
27740;SDS011;15134;48.768;9.184;2022-11-20T08:43:51;4.57;;;2.10;;
27740;SDS011;15134;48.768;9.184;2022-11-20T08:46:20;5.15;;;2.17;;
27740;SDS011;15134;48.768;9.184;2022-11-20T08:51:12;5.35;;;2.20;;
27740;SDS011;15134;48.768;9.184;2022-11-20T08:53:41;4.63;;;1.92;;
27740;SDS011;15134;48.768;9.184;2022-11-20T08:56:07;4.75;;;2.15;;
27740;SDS011;15134;48.768;9.184;2022-11-20T08:58:34;3.63;;;1.80;;
27740;SDS011;15134;48.768;9.184;2022-11-20T09:01:00;6.47;;;1.87;;
27740;SDS011;15134;48.768;9.184;2022-11-20T09:03:26;3.92;;;1.80;;
27740;SDS011;15134;48.768;9.184;2022-11-20T09:06:03;4.27;;;1.70;;
27740;SDS011;15134;48.768;9.184;2022-11-20T09:08:30;3.65;;;1.58;;
27740;SDS011;15134;48.768;9.184;2022-11-20T09:10:56;4.73;;;1.40;;
27740;SDS011;15134;48.768;9.184;2022-11-20T09:13:23;4.65;;;1.40;;
27740;SDS011;15134;48.768;9.184;2022-11-20T09:15:53;5.00;;;1.88;;
27740;SDS011;15134;48.768;9.184;2022-11-20T09:18:20;4.80;;;1.92;;
27740;SDS011;15134;48.768;9.184;2022-11-20T09:20:46;3.45;;;1.58;;
27740;SDS011;15134;48.768;9.184;2022-11-20T09:23:12;4.10;;;1.70;;
27740;SDS011;15134;48.768;9.184;2022-11-20T09:25:38;2.37;;;1.13;;
27740;SDS011;15134;48.768;9.184;2022-11-20T09:28:04;2.53;;;1.20;;
27740;SDS011;15134;48.768;9.184;2022-11-20T09:30:30;7.47;;;1.75;;
27740;SDS011;15134;48.768;9.184;2022-11-20T09:32:57;1.70;;;0.90;;
27740;SDS011;15134;48.768;9.184;2022-11-20T09:35:23;2.35;;;1.10;;
27740;SDS011;15134;48.768;9.184;2022-11-20T09:37:48;4.67;;;1.47;;
27740;SDS011;15134;48.768;9.184;2022-11-20T09:40:25;2.87;;;1.20;;
27740;SDS011;15134;48.768;9.184;2022-11-20T09:54:53;2.97;;;1.00;;
27740;SDS011;15134;48.768;9.184;2022-11-20T09:57:21;2.75;;;0.95;;
27740;SDS011;15134;48.768;9.184;2022-11-20T09:59:59;2.45;;;0.90;;
27740;SDS011;15134;48.768;9.184;2022-11-20T10:05:57;3.50;;;1.25;;
27740;SDS011;15134;48.768;9.184;2022-11-20T10:08:31;2.85;;;1.20;;
27740;SDS011;15134;48.768;9.184;2022-11-20T10:11:28;3.08;;;1.40;;
27740;SDS011;15134;48.768;9.184;2022-11-20T10:25:38;2.42;;;0.93;;
27740;SDS011;15134;48.768;9.184;2022-11-20T10:30:50;4.38;;;1.27;;
27740;SDS011;15134;48.768;9.184;2022-11-20T10:33:25;3.70;;;1.63;;
27740;SDS011;15134;48.768;9.184;2022-11-20T10:41:04;2.95;;;1.20;;
27740;SDS011;15134;48.768;9.184;2022-11-20T10:44:17;3.22;;;1.30;;
27740;SDS011;15134;48.768;9.184;2022-11-20T10:47:12;3.17;;;1.20;;
27740;SDS011;15134;48.768;9.184;2022-11-20T10:49:40;2.67;;;1.20;;
27740;SDS011;15134;48.768;9.184;2022-11-20T11:00:43;8.23;;;2.72;;
27740;SDS011;15134;48.768;9.184;2022-11-20T11:03:25;6.50;;;2.63;;
27740;SDS011;15134;48.768;9.184;2022-11-20T11:05:54;3.85;;;1.00;;
27740;SDS011;15134;48.768;9.184;2022-11-20T11:08:42;2.15;;;0.95;;
27740;SDS011;15134;48.768;9.184;2022-11-20T11:11:24;3.33;;;1.30;;
27740;SDS011;15134;48.768;9.184;2022-11-20T11:14:03;3.78;;;1.50;;
27740;SDS011;15134;48.768;9.184;2022-11-20T11:16:49;4.78;;;1.63;;
27740;SDS011;15134;48.768;9.184;2022-11-20T11:19:16;2.58;;;1.02;;
27740;SDS011;15134;48.768;9.184;2022-11-20T11:21:54;4.37;;;1.27;;
27740;SDS011;15134;48.768;9.184;2022-11-20T11:24:22;3.30;;;1.20;;
27740;SDS011;15134;48.768;9.184;2022-11-20T11:26:54;3.58;;;1.38;;
27740;SDS011;15134;48.768;9.184;2022-11-20T11:29:32;3.25;;;1.20;;
27740;SDS011;15134;48.768;9.184;2022-11-20T11:34:43;3.67;;;1.47;;
27740;SDS011;15134;48.768;9.184;2022-11-20T11:37:15;4.80;;;1.33;;
27740;SDS011;15134;48.768;9.184;2022-11-20T11:39:44;4.72;;;1.60;;
27740;SDS011;15134;48.768;9.184;2022-11-20T11:42:13;3.95;;;1.63;;
27740;SDS011;15134;48.768;9.184;2022-11-20T11:44:46;2.97;;;1.45;;
27740;SDS011;15134;48.768;9.184;2022-11-20T11:48:04;3.50;;;1.63;;
27740;SDS011;15134;48.768;9.184;2022-11-20T11:50:24;6.65;;;2.28;;
27740;SDS011;15134;48.768;9.184;2022-11-20T11:58:16;6.00;;;1.90;;
27740;SDS011;15134;48.768;9.184;2022-11-20T12:04:00;6.10;;;1.90;;
27740;SDS011;15134;48.768;9.184;2022-11-20T12:06:42;3.60;;;1.52;;
27740;SDS011;15134;48.768;9.184;2022-11-20T12:09:12;4.32;;;1.67;;
27740;SDS011;15134;48.768;9.184;2022-11-20T12:11:54;3.97;;;1.57;;
27740;SDS011;15134;48.768;9.184;2022-11-20T12:14:36;4.20;;;1.48;;
27740;SDS011;15134;48.768;9.184;2022-11-20T12:17:12;4.22;;;1.52;;
27740;SDS011;15134;48.768;9.184;2022-11-20T12:19:38;4.90;;;1.40;;
27740;SDS011;15134;48.768;9.184;2022-11-20T12:22:06;6.78;;;1.70;;
27740;SDS011;15134;48.768;9.184;2022-11-20T12:25:03;5.80;;;1.25;;
27740;SDS011;15134;48.768;9.184;2022-11-20T12:33:25;5.33;;;1.40;;
27740;SDS011;15134;48.768;9.184;2022-11-20T12:36:52;4.90;;;1.30;;
27740;SDS011;15134;48.768;9.184;2022-11-20T12:56:54;18.35;;;7.80;;
27740;SDS011;15134;48.768;9.184;2022-11-20T12:59:42;4.38;;;1.38;;
27740;SDS011;15134;48.768;9.184;2022-11-20T13:05:09;4.55;;;1.40;;
27740;SDS011;15134;48.768;9.184;2022-11-20T13:07:41;4.60;;;1.27;;
27740;SDS011;15134;48.768;9.184;2022-11-20T13:10:26;3.08;;;0.90;;
27740;SDS011;15134;48.768;9.184;2022-11-20T13:13:05;2.22;;;0.63;;
27740;SDS011;15134;48.768;9.184;2022-11-20T13:16:07;3.45;;;1.00;;
27740;SDS011;15134;48.768;9.184;2022-11-20T13:18:43;4.22;;;1.05;;
27740;SDS011;15134;48.768;9.184;2022-11-20T13:21:14;4.50;;;1.10;;
27740;SDS011;15134;48.768;9.184;2022-11-20T13:23:45;3.85;;;1.10;;
27740;SDS011;15134;48.768;9.184;2022-11-20T13:26:18;3.00;;;0.93;;
27740;SDS011;15134;48.768;9.184;2022-11-20T13:28:47;4.25;;;1.17;;
27740;SDS011;15134;48.768;9.184;2022-11-20T13:31:27;3.83;;;1.20;;
27740;SDS011;15134;48.768;9.184;2022-11-20T13:33:59;3.53;;;0.75;;
27740;SDS011;15134;48.768;9.184;2022-11-20T13:36:28;6.07;;;1.20;;
27740;SDS011;15134;48.768;9.184;2022-11-20T13:38:56;3.88;;;0.90;;
27740;SDS011;15134;48.768;9.184;2022-11-20T13:46:51;3.88;;;0.90;;
27740;SDS011;15134;48.768;9.184;2022-11-20T13:49:18;3.57;;;1.20;;
27740;SDS011;15134;48.768;9.184;2022-11-20T13:52:04;2.72;;;0.95;;
27740;SDS011;15134;48.768;9.184;2022-11-20T14:00:21;5.35;;;2.30;;
27740;SDS011;15134;48.768;9.184;2022-11-20T14:03:17;4.82;;;1.08;;
27740;SDS011;15134;48.768;9.184;2022-11-20T14:05:50;4.10;;;1.05;;
27740;SDS011;15134;48.768;9.184;2022-11-20T14:08:23;1.83;;;0.80;;
27740;SDS011;15134;48.768;9.184;2022-11-20T14:11:05;4.35;;;1.42;;
27740;SDS011;15134;48.768;9.184;2022-11-20T14:16:04;5.53;;;1.30;;
27740;SDS011;15134;48.768;9.184;2022-11-20T14:18:30;2.47;;;1.00;;
27740;SDS011;15134;48.768;9.184;2022-11-20T14:20:55;3.30;;;1.40;;
27740;SDS011;15134;48.768;9.184;2022-11-20T14:23:25;6.93;;;2.17;;
27740;SDS011;15134;48.768;9.184;2022-11-20T14:25:52;3.92;;;1.15;;
27740;SDS011;15134;48.768;9.184;2022-11-20T14:28:25;4.20;;;1.35;;
27740;SDS011;15134;48.768;9.184;2022-11-20T14:30:52;7.03;;;1.80;;
27740;SDS011;15134;48.768;9.184;2022-11-20T14:33:19;5.45;;;1.40;;
27740;SDS011;15134;48.768;9.184;2022-11-20T14:35:48;5.27;;;1.73;;
27740;SDS011;15134;48.768;9.184;2022-11-20T14:38:21;5.18;;;1.35;;
27740;SDS011;15134;48.768;9.184;2022-11-20T14:40:50;4.78;;;1.42;;
27740;SDS011;15134;48.768;9.184;2022-11-20T14:43:17;5.45;;;1.40;;
27740;SDS011;15134;48.768;9.184;2022-11-20T14:45:52;4.28;;;1.23;;
27740;SDS011;15134;48.768;9.184;2022-11-20T14:48:29;4.75;;;1.70;;
27740;SDS011;15134;48.768;9.184;2022-11-20T14:51:01;5.85;;;1.20;;
27740;SDS011;15134;48.768;9.184;2022-11-20T14:53:26;4.85;;;1.30;;
27740;SDS011;15134;48.768;9.184;2022-11-20T14:55:59;7.37;;;1.87;;
27740;SDS011;15134;48.768;9.184;2022-11-20T14:58:30;5.43;;;1.77;;
27740;SDS011;15134;48.768;9.184;2022-11-20T15:03:34;4.32;;;1.60;;
27740;SDS011;15134;48.768;9.184;2022-11-20T15:06:01;5.65;;;1.75;;
27740;SDS011;15134;48.768;9.184;2022-11-20T15:08:27;6.20;;;2.70;;
27740;SDS011;15134;48.768;9.184;2022-11-20T15:10:53;6.90;;;3.03;;
27740;SDS011;15134;48.768;9.184;2022-11-20T15:13:24;7.07;;;2.00;;
27740;SDS011;15134;48.768;9.184;2022-11-20T15:16:00;3.83;;;1.60;;
27740;SDS011;15134;48.768;9.184;2022-11-20T15:18:37;6.90;;;2.08;;
27740;SDS011;15134;48.768;9.184;2022-11-20T15:21:09;8.63;;;3.72;;
27740;SDS011;15134;48.768;9.184;2022-11-20T15:23:36;4.20;;;1.80;;
27740;SDS011;15134;48.768;9.184;2022-11-20T15:26:04;6.83;;;2.57;;
27740;SDS011;15134;48.768;9.184;2022-11-20T15:28:34;6.20;;;2.00;;
27740;SDS011;15134;48.768;9.184;2022-11-20T15:31:02;3.90;;;1.50;;
27740;SDS011;15134;48.768;9.184;2022-11-20T15:35:55;6.47;;;2.60;;
27740;SDS011;15134;48.768;9.184;2022-11-20T15:38:21;7.73;;;2.83;;
27740;SDS011;15134;48.768;9.184;2022-11-20T15:40:46;5.87;;;2.30;;
27740;SDS011;15134;48.768;9.184;2022-11-20T15:43:13;4.93;;;2.10;;
27740;SDS011;15134;48.768;9.184;2022-11-20T15:45:46;8.75;;;4.28;;
27740;SDS011;15134;48.768;9.184;2022-11-20T15:48:20;4.53;;;1.60;;
27740;SDS011;15134;48.768;9.184;2022-11-20T15:53:41;5.72;;;1.50;;
27740;SDS011;15134;48.768;9.184;2022-11-20T15:56:13;6.00;;;1.45;;
27740;SDS011;15134;48.768;9.184;2022-11-20T15:58:39;3.70;;;1.40;;
27740;SDS011;15134;48.768;9.184;2022-11-20T16:01:08;5.50;;;1.60;;
27740;SDS011;15134;48.768;9.184;2022-11-20T16:03:39;9.63;;;3.92;;
27740;SDS011;15134;48.768;9.184;2022-11-20T16:06:05;10.30;;;4.47;;
27740;SDS011;15134;48.768;9.184;2022-11-20T16:08:31;3.87;;;1.60;;
27740;SDS011;15134;48.768;9.184;2022-11-20T16:10:56;9.03;;;4.33;;
27740;SDS011;15134;48.768;9.184;2022-11-20T16:13:22;6.57;;;2.80;;
27740;SDS011;15134;48.768;9.184;2022-11-20T16:16:26;9.93;;;5.03;;
27740;SDS011;15134;48.768;9.184;2022-11-20T16:18:54;6.25;;;2.90;;
27740;SDS011;15134;48.768;9.184;2022-11-20T16:21:20;5.37;;;2.10;;
27740;SDS011;15134;48.768;9.184;2022-11-20T16:23:45;3.77;;;1.60;;
27740;SDS011;15134;48.768;9.184;2022-11-20T16:26:13;9.50;;;5.70;;
27740;SDS011;15134;48.768;9.184;2022-11-20T16:28:40;6.60;;;2.97;;
27740;SDS011;15134;48.768;9.184;2022-11-20T16:31:14;5.50;;;1.90;;
27740;SDS011;15134;48.768;9.184;2022-11-20T16:33:50;5.70;;;2.35;;
27740;SDS011;15134;48.768;9.184;2022-11-20T16:36:17;5.30;;;2.30;;
27740;SDS011;15134;48.768;9.184;2022-11-20T16:38:51;6.65;;;2.60;;
27740;SDS011;15134;48.768;9.184;2022-11-20T16:41:21;6.28;;;2.50;;
27740;SDS011;15134;48.768;9.184;2022-11-20T16:43:49;5.45;;;2.20;;
27740;SDS011;15134;48.768;9.184;2022-11-20T16:46:21;5.85;;;2.45;;
27740;SDS011;15134;48.768;9.184;2022-11-20T16:49:01;4.55;;;2.33;;
27740;SDS011;15134;48.768;9.184;2022-11-20T16:51:36;5.70;;;2.40;;
27740;SDS011;15134;48.768;9.184;2022-11-20T16:54:03;6.20;;;2.53;;
27740;SDS011;15134;48.768;9.184;2022-11-20T16:56:30;5.45;;;2.13;;
27740;SDS011;15134;48.768;9.184;2022-11-20T16:58:56;5.87;;;2.17;;
27740;SDS011;15134;48.768;9.184;2022-11-20T17:01:23;5.35;;;2.25;;
27740;SDS011;15134;48.768;9.184;2022-11-20T17:03:57;4.57;;;2.45;;
27740;SDS011;15134;48.768;9.184;2022-11-20T17:06:27;6.40;;;3.05;;
27740;SDS011;15134;48.768;9.184;2022-11-20T17:08:58;4.90;;;2.40;;